Reynoldsburg, OH (43068)

11:10 AM EST on February 27, 2015 (GMT -0500)
Timber Creek | Change Station
CLOSE
Current Station
Personal Weather Station
Location: Reynoldsburg, OH
Elevation: 926 ft
Nearby Weather Stations

Elev 926 ft 39.98 °N, 82.81 °W | Updated 9 seconds ago

Overcast
Overcast
14.0 °F
Feels Like 14 °F
N
1.6
Wind Variable Wind from West
Gusts 2.2 mph

Today
High -- | Low -- °F
--% Chance of Precip.
Yesterday
High -- | Low -- °F
Precip. -- in
7:07 AM 6:20 PM
Waxing Gibbous, 69% visible
Pressure 30.60 in
Visibility 6.0 miles
Clouds Mostly Cloudy 2000 ft
Mostly Cloudy 2800 ft
Overcast 3700 ft
Windchill 14 °F
Dew Point 8 °F
Humidity 76%
Rainfall 0.00 in
Snow Depth Not available.
UV 1 out of 12
Pollen .50 out of 12
Air Quality Not available.
Flu Activity Not available.
METAR KCMH 271551Z 00000KT 6SM -SN BKN020 BKN028 OVC037 M11/M15 A3055 RMK AO2 SNE1459B30 SLP360 P0000 T11061150

More Conditions Fewer Conditions

Pressure 30.60 in
Visibility 6.0 miles
Clouds Mostly Cloudy 2000 ft
Mostly Cloudy 2800 ft
Overcast 3700 ft
Windchill 14 °F
Dew Point 8 °F
Humidity 76%
Rainfall 0.00 in
Snow Depth Not available.
UV 1 out of 12
Pollen .50 out of 12
Air Quality Not available.
Flu Activity Not available.
METAR KCMH 271551Z 00000KT 6SM -SN BKN020 BKN028 OVC037 M11/M15 A3055 RMK AO2 SNE1459B30 SLP360 P0000 T11061150

More Conditions Fewer Conditions

10-Day Weather Forecast

Almanac

Astronomy

Feb. 27, 2015 Rise Set
Actual Time
Civil Twilight
Nautical Twilight
Astronomical Twilight
Moon
Length of Visible Light
Length of Day
Tomorrow will be .
, % of the Moon is Illuminated

Today's Extremes

State Highs State Lows

Community

WunderPhotos

Upload Photos

1,800,727 photos uploaded!

WunderBlogs® & News

Nearby

Air Quality

  Air Quality AQ Index Pollutant
Not available.

Snow Depth

Station Depth Elevation

Earthquake Activity

City Distance Mag. Time & Date
Minimum magnitude displayed is 2.5.

Coastal Water Temperatures

Place Temperature

Nearby Weather Stations